Main page
METAR-TAF:

METAR-TAF

Airports :

Quebec City, Quebec, Canada

Québec City Jean Lesage International Airport

latitude: 46-48N, longitude: 071-23W, elevation: 70 m

Current weather observation

The report was made 15 minutes ago, at 04:00 UTC
Wind 7 kt from the East/Northeast
Temperature 7°C
Humidity 81%
Pressure 1026 hPa
Visibility: 24.1 km
Few clouds at a height of 20000 ft

METAR: CYQB 230400Z 06007KT 15SM FEW200 07/04 A3031 RMK CI2 SLP269

Time: 00:15 (04:15 UTC)

Forecast

The report was made 4 hours and 37 minutes ago, at 23:38 UTC
Forecast valid from 23 at 00 UTC to 23 at 24 UTC
Wind 8 kt from the East/Northeast
Visibility: 10 km
Few clouds at a height of 17000 ft
Broken clouds at a height of 21000 ft
Becoming
from 23 at 07 UTC to 23 at 09 UTC
Wind 5 kt from the North/Northeast
Becoming
from 23 at 13 UTC to 23 at 15 UTC
Wind 8 kt from the East

TAF: CYQB 222338Z 2300/2324 07008KT P6SM FEW170 BKN210 BECMG 2307/2309 03005KT BECMG 2313/2315 09008KT RMK NXT FCST BY 230600Z

Weather observations and forecasts of more than 4000 airports (METAR and TAF reports).

The available stations are represented by yellow and red dots on the map.

Hover mouse over dot to see the name of the station.

Then click to see weather observations and forecasts.

To change the map : click on the green buttons with a black cross to zoom in, on the green button with a dash to zoom out, or on the green arrows for adjacent maps.


METAR-TAF: